createdAt,value
2018-03-26T00:00:29.825Z,1004.92
2018-03-26T00:01:29.801Z,1004.92
2018-03-26T00:02:29.801Z,1004.95
2018-03-26T00:03:29.794Z,1004.92
2018-03-26T00:04:29.782Z,1004.91
2018-03-26T00:05:29.764Z,1004.90
2018-03-26T00:06:29.764Z,1004.88
2018-03-26T00:07:29.750Z,1004.92
2018-03-26T00:08:29.758Z,1004.94
2018-03-26T00:09:29.742Z,1004.89
2018-03-26T00:10:29.717Z,1004.93
2018-03-26T00:11:29.721Z,1004.91
2018-03-26T00:12:29.698Z,1004.97
2018-03-26T00:13:29.700Z,1004.95
2018-03-26T00:14:29.696Z,1004.93
2018-03-26T00:15:29.672Z,1004.99
2018-03-26T00:16:29.663Z,1004.96
2018-03-26T00:17:29.655Z,1004.95
2018-03-26T00:18:29.644Z,1004.98
2018-03-26T00:19:29.647Z,1004.98
2018-03-26T00:20:29.626Z,1005.01
2018-03-26T00:21:29.628Z,1005.00
2018-03-26T00:22:29.618Z,1004.99
2018-03-26T00:23:29.600Z,1005.01
2018-03-26T00:24:29.588Z,1004.97
2018-03-26T00:25:29.593Z,1005.00
2018-03-26T00:26:29.573Z,1004.97
2018-03-26T00:27:29.563Z,1005.00
2018-03-26T00:28:29.564Z,1005.01
2018-03-26T00:29:29.554Z,1005.04
2018-03-26T00:30:29.547Z,1005.05
2018-03-26T00:31:29.528Z,1005.04
2018-03-26T00:32:29.536Z,1005.03
2018-03-26T00:33:29.507Z,1005.01
2018-03-26T00:34:29.499Z,1005.03
2018-03-26T00:35:29.489Z,1005.01
2018-03-26T00:36:29.490Z,1005.00
2018-03-26T00:37:29.490Z,1005.02
2018-03-26T00:38:29.461Z,1004.99
2018-03-26T00:39:29.452Z,1004.99
2018-03-26T00:40:29.443Z,1005.02
2018-03-26T00:41:29.443Z,1004.98
2018-03-26T00:42:29.429Z,1004.95
2018-03-26T00:43:29.428Z,1004.99
2018-03-26T00:44:29.418Z,1004.99
2018-03-26T00:45:29.398Z,1004.98
2018-03-26T00:46:29.390Z,1005.00
2018-03-26T00:47:29.380Z,1004.96
2018-03-26T00:48:29.369Z,1005.01
2018-03-26T00:49:29.362Z,1005.04
2018-03-26T00:50:29.362Z,1005.02
2018-03-26T00:51:29.381Z,1005.03
2018-03-26T00:52:29.346Z,1005.08
2018-03-26T00:53:29.324Z,1005.07
2018-03-26T00:54:29.325Z,1005.08
2018-03-26T00:55:29.306Z,1005.08
2018-03-26T00:56:29.295Z,1005.10
2018-03-26T00:57:29.287Z,1005.08
2018-03-26T00:58:29.282Z,1005.13
2018-03-26T00:59:29.267Z,1005.12
2018-03-26T01:00:29.256Z,1005.19
2018-03-26T01:01:29.251Z,1005.15
2018-03-26T01:02:29.252Z,1005.16
2018-03-26T01:03:29.228Z,1005.20
2018-03-26T01:04:29.244Z,1005.20
2018-03-26T01:05:29.225Z,1005.22
2018-03-26T01:06:29.207Z,1005.17
2018-03-26T01:07:29.192Z,1005.14
2018-03-26T01:08:29.183Z,1005.16
2018-03-26T01:09:29.175Z,1005.20
2018-03-26T01:10:29.163Z,1005.16
2018-03-26T01:11:29.157Z,1005.11
2018-03-26T01:12:29.156Z,1005.15
2018-03-26T01:13:29.136Z,1005.17
2018-03-26T01:14:29.138Z,1005.19
2018-03-26T01:15:29.118Z,1005.18
2018-03-26T01:16:29.113Z,1005.20
2018-03-26T01:17:29.101Z,1005.22
2018-03-26T01:18:29.111Z,1005.19
2018-03-26T01:19:29.102Z,1005.18
2018-03-26T01:20:29.082Z,1005.22
2018-03-26T01:21:29.086Z,1005.22
2018-03-26T01:22:29.055Z,1005.22
2018-03-26T01:23:29.043Z,1005.23
2018-03-26T01:24:29.052Z,1005.30
2018-03-26T01:25:29.046Z,1005.28
2018-03-26T01:26:29.028Z,1005.30
2018-03-26T01:27:29.020Z,1005.27
2018-03-26T01:28:29.008Z,1005.30
2018-03-26T01:29:28.996Z,1005.31
2018-03-26T01:30:28.988Z,1005.30
2018-03-26T01:31:28.967Z,1005.31
2018-03-26T01:32:28.959Z,1005.34
2018-03-26T01:33:28.952Z,1005.34
2018-03-26T01:34:28.943Z,1005.32
2018-03-26T01:35:28.947Z,1005.33
2018-03-26T01:36:28.921Z,1005.35
2018-03-26T01:37:28.911Z,1005.36
2018-03-26T01:38:28.911Z,1005.40
2018-03-26T01:39:28.904Z,1005.40
2018-03-26T01:40:28.883Z,1005.45
2018-03-26T01:41:28.877Z,1005.43
2018-03-26T01:42:28.876Z,1005.42
2018-03-26T01:43:28.865Z,1005.43
2018-03-26T01:44:28.846Z,1005.42
2018-03-26T01:45:28.859Z,1005.46
2018-03-26T01:46:28.824Z,1005.46
2018-03-26T01:47:28.828Z,1005.47
2018-03-26T01:48:28.810Z,1005.48
2018-03-26T01:49:28.806Z,1005.50
2018-03-26T01:50:28.787Z,1005.49
2018-03-26T01:51:28.790Z,1005.53
2018-03-26T01:52:28.779Z,1005.50
2018-03-26T01:53:28.757Z,1005.52
2018-03-26T01:54:28.750Z,1005.53
2018-03-26T01:55:28.737Z,1005.54
2018-03-26T01:56:28.726Z,1005.57
2018-03-26T01:57:28.714Z,1005.60
2018-03-26T01:58:28.708Z,1005.59
2018-03-26T01:59:28.700Z,1005.58
2018-03-26T02:00:28.692Z,1005.63
2018-03-26T02:01:28.677Z,1005.66
2018-03-26T02:02:28.670Z,1005.68
2018-03-26T02:03:28.668Z,1005.67
2018-03-26T02:04:28.654Z,1005.68
2018-03-26T02:05:28.641Z,1005.67
2018-03-26T02:06:28.633Z,1005.67
2018-03-26T02:07:28.623Z,1005.70
2018-03-26T02:08:28.613Z,1005.72
2018-03-26T02:09:28.605Z,1005.72
2018-03-26T02:10:28.595Z,1005.73
2018-03-26T02:11:28.585Z,1005.78
2018-03-26T02:12:28.577Z,1005.71
2018-03-26T02:13:28.568Z,1005.73
2018-03-26T02:14:28.558Z,1005.74
2018-03-26T02:15:28.546Z,1005.72
2018-03-26T02:16:28.558Z,1005.73
2018-03-26T02:17:28.528Z,1005.74
2018-03-26T02:18:28.520Z,1005.77
2018-03-26T02:19:28.509Z,1005.74
2018-03-26T02:20:28.500Z,1005.73
2018-03-26T02:21:28.490Z,1005.72
2018-03-26T02:22:28.481Z,1005.72
2018-03-26T02:23:28.471Z,1005.74
2018-03-26T02:24:28.467Z,1005.79
2018-03-26T02:25:28.451Z,1005.79
2018-03-26T02:26:28.443Z,1005.78
2018-03-26T02:27:28.433Z,1005.81
2018-03-26T02:28:28.424Z,1005.79
2018-03-26T02:29:28.414Z,1005.77
2018-03-26T02:30:28.403Z,1005.84
2018-03-26T02:31:28.396Z,1005.83
2018-03-26T02:32:28.387Z,1005.84
2018-03-26T02:33:28.377Z,1005.89
2018-03-26T02:34:28.367Z,1005.85
2018-03-26T02:35:28.355Z,1005.86
2018-03-26T02:36:28.346Z,1005.84
2018-03-26T02:37:28.342Z,1005.86
2018-03-26T02:38:28.326Z,1005.86
2018-03-26T02:39:28.320Z,1005.86
2018-03-26T02:40:28.309Z,1005.89
2018-03-26T02:41:28.298Z,1005.89
2018-03-26T02:42:28.289Z,1005.85
2018-03-26T02:43:28.279Z,1005.88
2018-03-26T02:44:28.268Z,1005.89
2018-03-26T02:45:28.260Z,1005.90
2018-03-26T02:46:28.252Z,1005.89
2018-03-26T02:47:28.238Z,1005.92
2018-03-26T02:48:28.232Z,1005.94
2018-03-26T02:49:28.222Z,1005.99
2018-03-26T02:50:28.211Z,1005.98
2018-03-26T02:51:28.208Z,1005.99
2018-03-26T02:52:28.195Z,1005.93
2018-03-26T02:53:28.182Z,1005.95
2018-03-26T02:54:28.175Z,1005.99
2018-03-26T02:55:28.164Z,1005.91
2018-03-26T02:56:28.155Z,1005.93
2018-03-26T02:57:28.145Z,1006.02
2018-03-26T02:58:28.135Z,1005.98
2018-03-26T02:59:28.124Z,1006.02
2018-03-26T03:00:28.115Z,1005.97
2018-03-26T03:01:28.117Z,1006.01
2018-03-26T03:02:28.095Z,1006.00
2018-03-26T03:03:28.088Z,1005.94
2018-03-26T03:04:28.077Z,1005.98
2018-03-26T03:05:28.067Z,1006.00
2018-03-26T03:06:28.057Z,1005.99
2018-03-26T03:07:28.048Z,1006.04
2018-03-26T03:08:28.038Z,1006.01
2018-03-26T03:09:28.030Z,1006.05
2018-03-26T03:10:28.018Z,1006.04
2018-03-26T03:11:28.008Z,1006.04
2018-03-26T03:12:28.000Z,1006.02
2018-03-26T03:13:27.989Z,1006.03
2018-03-26T03:14:27.980Z,1006.02
2018-03-26T03:15:27.971Z,1006.01
2018-03-26T03:16:27.959Z,1006.01
2018-03-26T03:17:27.948Z,1006.03
2018-03-26T03:18:27.941Z,1006.05
2018-03-26T03:19:27.935Z,1006.03
2018-03-26T03:20:27.922Z,1006.07
2018-03-26T03:21:27.920Z,1006.02
2018-03-26T03:22:27.901Z,1006.07
2018-03-26T03:23:27.891Z,1006.04
2018-03-26T03:24:27.877Z,1006.02
2018-03-26T03:25:27.874Z,1006.02
2018-03-26T03:26:27.866Z,1006.04
2018-03-26T03:27:27.851Z,1005.99
2018-03-26T03:28:27.842Z,1006.01
2018-03-26T03:29:27.833Z,1006.00
2018-03-26T03:30:27.823Z,1006.02
2018-03-26T03:31:27.820Z,1006.03
2018-03-26T03:32:27.805Z,1006.00
2018-03-26T03:33:27.793Z,1006.08
2018-03-26T03:34:27.786Z,1006.03
2018-03-26T03:35:27.773Z,1006.05
2018-03-26T03:36:27.766Z,1006.10
2018-03-26T03:37:27.754Z,1006.08
2018-03-26T03:38:27.746Z,1006.09
2018-03-26T03:39:27.735Z,1006.05
2018-03-26T03:40:27.724Z,1006.12
2018-03-26T03:41:27.715Z,1006.10
2018-03-26T03:42:27.703Z,1006.11
2018-03-26T03:43:27.744Z,1006.09
2018-03-26T03:44:27.685Z,1006.08
2018-03-26T03:45:27.675Z,1006.11
2018-03-26T03:46:27.666Z,1006.10
2018-03-26T03:47:27.657Z,1006.12
2018-03-26T03:48:27.646Z,1006.14
2018-03-26T03:49:27.637Z,1006.11
2018-03-26T03:50:27.627Z,1006.11
2018-03-26T03:51:27.615Z,1006.14
2018-03-26T03:52:27.607Z,1006.11
2018-03-26T03:53:27.599Z,1006.10
2018-03-26T03:54:27.587Z,1006.15
2018-03-26T03:55:27.578Z,1006.13
2018-03-26T03:56:27.569Z,1006.13
2018-03-26T03:57:27.559Z,1006.11
2018-03-26T03:58:27.547Z,1006.10
2018-03-26T03:59:27.540Z,1006.12
2018-03-26T04:00:27.529Z,1006.12
2018-03-26T04:01:27.518Z,1006.11
2018-03-26T04:02:27.509Z,1006.13
2018-03-26T04:03:27.500Z,1006.13
2018-03-26T04:04:27.490Z,1006.16
2018-03-26T04:05:27.477Z,1006.13
2018-03-26T04:06:27.472Z,1006.16
2018-03-26T04:07:27.462Z,1006.16
2018-03-26T04:08:27.451Z,1006.13
2018-03-26T04:09:27.442Z,1006.12
2018-03-26T04:10:27.431Z,1006.16
2018-03-26T04:11:27.423Z,1006.18
2018-03-26T04:12:27.413Z,1006.19
2018-03-26T04:13:27.403Z,1006.19
2018-03-26T04:14:27.393Z,1006.21
2018-03-26T04:15:27.383Z,1006.19
2018-03-26T04:16:27.372Z,1006.20
2018-03-26T04:17:27.362Z,1006.21
2018-03-26T04:18:27.354Z,1006.19
2018-03-26T04:19:27.341Z,1006.24
2018-03-26T04:20:27.332Z,1006.24
2018-03-26T04:21:27.324Z,1006.25
2018-03-26T04:22:27.311Z,1006.24
2018-03-26T04:23:27.304Z,1006.24
2018-03-26T04:24:27.295Z,1006.23
2018-03-26T04:25:27.284Z,1006.26
2018-03-26T04:26:27.323Z,1006.25
2018-03-26T04:27:27.266Z,1006.28
2018-03-26T04:28:27.253Z,1006.29
2018-03-26T04:29:27.246Z,1006.28
2018-03-26T04:30:27.233Z,1006.31
2018-03-26T04:31:27.223Z,1006.30
2018-03-26T04:32:27.213Z,1006.34
2018-03-26T04:33:27.203Z,1006.35
2018-03-26T04:34:27.193Z,1006.34
2018-03-26T04:35:27.186Z,1006.38
2018-03-26T04:36:27.179Z,1006.39
2018-03-26T04:37:27.165Z,1006.35
2018-03-26T04:38:27.153Z,1006.31
2018-03-26T04:39:27.145Z,1006.32
2018-03-26T04:40:27.136Z,1006.33
2018-03-26T04:41:27.124Z,1006.37
2018-03-26T04:42:27.116Z,1006.37
2018-03-26T04:43:27.105Z,1006.35
2018-03-26T04:44:27.097Z,1006.39
2018-03-26T04:45:27.086Z,1006.39
2018-03-26T04:46:27.078Z,1006.37
2018-03-26T04:47:27.071Z,1006.36
2018-03-26T04:48:27.060Z,1006.37
2018-03-26T04:49:27.047Z,1006.38
2018-03-26T04:50:27.087Z,1006.37
2018-03-26T04:51:27.026Z,1006.33
2018-03-26T04:52:27.020Z,1006.37
2018-03-26T04:53:27.006Z,1006.38
2018-03-26T04:54:26.996Z,1006.37
2018-03-26T04:55:26.988Z,1006.41
2018-03-26T04:56:26.978Z,1006.39
2018-03-26T04:57:26.967Z,1006.40
2018-03-26T04:58:26.960Z,1006.37
2018-03-26T04:59:26.948Z,1006.40
2018-03-26T05:00:26.939Z,1006.42
2018-03-26T05:01:26.952Z,1006.44
2018-03-26T05:02:26.917Z,1006.42
2018-03-26T05:03:26.908Z,1006.45
2018-03-26T05:04:26.898Z,1006.45
2018-03-26T05:05:26.890Z,1006.47
2018-03-26T05:06:26.879Z,1006.47
2018-03-26T05:07:26.871Z,1006.48
2018-03-26T05:08:26.858Z,1006.45
2018-03-26T05:09:26.847Z,1006.49
2018-03-26T05:10:26.840Z,1006.51
2018-03-26T05:11:26.829Z,1006.49
2018-03-26T05:12:26.820Z,1006.52
2018-03-26T05:13:26.809Z,1006.53
2018-03-26T05:14:26.811Z,1006.53
2018-03-26T05:15:26.789Z,1006.53
2018-03-26T05:16:26.781Z,1006.58
2018-03-26T05:17:27.706Z,1006.61
2018-03-26T05:18:26.760Z,1006.59
2018-03-26T05:19:26.750Z,1006.62
2018-03-26T05:20:26.737Z,1006.58
2018-03-26T05:21:26.726Z,1006.65
2018-03-26T05:22:26.721Z,1006.63
2018-03-26T05:23:26.710Z,1006.70
2018-03-26T05:24:26.701Z,1006.71
2018-03-26T05:25:26.690Z,1006.67
2018-03-26T05:26:26.683Z,1006.74
2018-03-26T05:27:26.673Z,1006.73
2018-03-26T05:28:26.661Z,1006.74
2018-03-26T05:29:26.655Z,1006.76
2018-03-26T05:30:26.641Z,1006.79
2018-03-26T05:31:26.630Z,1006.81
2018-03-26T05:32:26.624Z,1006.81
2018-03-26T05:33:26.613Z,1006.82
2018-03-26T05:34:26.603Z,1006.83
2018-03-26T05:35:26.590Z,1006.84
2018-03-26T05:36:26.587Z,1006.86
2018-03-26T05:37:26.570Z,1006.89
2018-03-26T05:38:26.564Z,1006.89
2018-03-26T05:39:26.561Z,1006.89
2018-03-26T05:40:26.574Z,1006.90
2018-03-26T05:41:26.532Z,1006.94
2018-03-26T05:42:26.523Z,1006.92
2018-03-26T05:43:26.509Z,1006.98
2018-03-26T05:44:26.505Z,1007.01
2018-03-26T05:45:26.493Z,1007.01
2018-03-26T05:46:26.483Z,1007.03
2018-03-26T05:47:26.474Z,1007.06
2018-03-26T05:48:26.464Z,1007.06
2018-03-26T05:49:26.453Z,1007.08
2018-03-26T05:50:26.438Z,1007.09
2018-03-26T05:51:26.430Z,1007.09
2018-03-26T05:52:26.428Z,1007.13
2018-03-26T05:53:26.415Z,1007.15
2018-03-26T05:54:26.407Z,1007.14
2018-03-26T05:55:26.393Z,1007.19
2018-03-26T05:56:26.387Z,1007.20
2018-03-26T05:57:26.374Z,1007.23
2018-03-26T05:58:26.365Z,1007.24
2018-03-26T05:59:26.356Z,1007.24
2018-03-26T06:00:26.347Z,1007.22
2018-03-26T06:01:26.333Z,1007.27
2018-03-26T06:02:26.324Z,1007.29
2018-03-26T06:03:26.314Z,1007.29
2018-03-26T06:04:26.307Z,1007.33
2018-03-26T06:05:26.294Z,1007.33
2018-03-26T06:06:26.287Z,1007.34
2018-03-26T06:07:26.274Z,1007.35
2018-03-26T06:08:26.269Z,1007.37
2018-03-26T06:09:26.257Z,1007.41
2018-03-26T06:10:26.247Z,1007.39
2018-03-26T06:11:26.262Z,1007.44
2018-03-26T06:12:26.233Z,1007.43
2018-03-26T06:13:26.216Z,1007.46
2018-03-26T06:14:26.208Z,1007.43
2018-03-26T06:15:26.197Z,1007.43
2018-03-26T06:16:26.190Z,1007.50
2018-03-26T06:17:26.180Z,1007.49
2018-03-26T06:18:26.164Z,1007.55
2018-03-26T06:19:26.157Z,1007.54
2018-03-26T06:20:26.148Z,1007.57
2018-03-26T06:21:26.137Z,1007.54
2018-03-26T06:22:26.132Z,1007.52
2018-03-26T06:23:26.119Z,1007.51
2018-03-26T06:24:26.110Z,1007.52
2018-03-26T06:25:26.101Z,1007.62
2018-03-26T06:26:26.088Z,1007.50
2018-03-26T06:27:26.078Z,1007.54
2018-03-26T06:28:26.072Z,1007.53
2018-03-26T06:29:26.060Z,1007.54
2018-03-26T06:30:26.061Z,1007.52
2018-03-26T06:31:26.039Z,1007.56
2018-03-26T06:32:26.033Z,1007.60
2018-03-26T06:33:26.021Z,1007.60
2018-03-26T06:34:26.018Z,1007.65
2018-03-26T06:35:26.006Z,1007.60
2018-03-26T06:36:25.991Z,1007.64
2018-03-26T06:37:25.982Z,1007.65
2018-03-26T06:38:25.978Z,1007.65
2018-03-26T06:39:25.961Z,1007.67
2018-03-26T06:40:25.955Z,1007.66
2018-03-26T06:41:25.943Z,1007.72
2018-03-26T06:42:25.934Z,1007.72
2018-03-26T06:43:25.924Z,1007.78
2018-03-26T06:44:25.915Z,1007.75
2018-03-26T06:45:25.903Z,1007.79
2018-03-26T06:46:25.896Z,1007.83
2018-03-26T06:47:25.883Z,1007.86
2018-03-26T06:48:25.880Z,1007.85
2018-03-26T06:49:25.867Z,1007.87
2018-03-26T06:50:25.858Z,1007.84
2018-03-26T06:51:25.848Z,1007.82
2018-03-26T06:52:25.837Z,1007.86
2018-03-26T06:53:25.826Z,1007.82
2018-03-26T06:54:25.824Z,1007.85
2018-03-26T06:55:25.812Z,1007.92
2018-03-26T06:56:25.798Z,1007.91
2018-03-26T06:57:26.721Z,1007.92
2018-03-26T06:58:25.776Z,1007.95
2018-03-26T06:59:25.787Z,1007.98
2018-03-26T07:00:25.760Z,1008.00
2018-03-26T07:01:25.754Z,1008.03
2018-03-26T07:02:25.741Z,1007.97
2018-03-26T07:03:25.738Z,1007.99
2018-03-26T07:04:25.722Z,1008.04
2018-03-26T07:05:25.711Z,1008.03
2018-03-26T07:06:25.703Z,1008.03
2018-03-26T07:07:25.693Z,1008.05
2018-03-26T07:08:25.687Z,1008.06
2018-03-26T07:09:25.678Z,1008.06
2018-03-26T07:10:26.679Z,1008.08
2018-03-26T07:11:25.656Z,1008.07
2018-03-26T07:12:25.696Z,1008.12
2018-03-26T07:13:25.637Z,1008.14
2018-03-26T07:14:25.630Z,1008.16
2018-03-26T07:15:25.619Z,1008.15
2018-03-26T07:16:25.611Z,1008.17
2018-03-26T07:17:25.600Z,1008.19
2018-03-26T07:18:25.591Z,1008.19
2018-03-26T07:19:25.604Z,1008.18
2018-03-26T07:20:25.573Z,1008.19
2018-03-26T07:21:25.563Z,1008.20
2018-03-26T07:22:25.556Z,1008.21
2018-03-26T07:23:25.548Z,1008.23
2018-03-26T07:24:25.555Z,1008.21
2018-03-26T07:25:25.527Z,1008.26
2018-03-26T07:26:25.518Z,1008.23
2018-03-26T07:27:25.511Z,1008.23
2018-03-26T07:28:25.506Z,1008.22
2018-03-26T07:29:25.533Z,1008.23
2018-03-26T07:30:25.497Z,1008.23
2018-03-26T07:31:25.479Z,1008.29
2018-03-26T07:32:25.470Z,1008.28
2018-03-26T07:33:25.459Z,1008.35
2018-03-26T07:34:25.452Z,1008.36
2018-03-26T07:35:25.447Z,1008.35
2018-03-26T07:36:25.438Z,1008.34
2018-03-26T07:37:25.428Z,1008.33
2018-03-26T07:38:25.423Z,1008.32
2018-03-26T07:39:25.436Z,1008.35
2018-03-26T07:40:25.399Z,1008.36
2018-03-26T07:41:25.394Z,1008.33
2018-03-26T07:42:25.404Z,1008.37
2018-03-26T07:43:25.406Z,1008.37
2018-03-26T07:44:25.370Z,1008.36
2018-03-26T07:45:25.362Z,1008.33
2018-03-26T07:46:25.353Z,1008.34
2018-03-26T07:47:25.377Z,1008.34
2018-03-26T07:48:25.341Z,1008.33
2018-03-26T07:49:25.333Z,1008.34
2018-03-26T07:50:25.323Z,1008.33
2018-03-26T07:51:25.312Z,1008.32
2018-03-26T07:52:25.306Z,1008.35
2018-03-26T07:53:25.302Z,1008.34
2018-03-26T07:54:25.285Z,1008.36
2018-03-26T07:55:25.284Z,1008.33
2018-03-26T07:56:25.275Z,1008.33
2018-03-26T07:57:25.268Z,1008.36
2018-03-26T07:58:25.262Z,1008.37
2018-03-26T07:59:25.254Z,1008.34
2018-03-26T08:00:25.825Z,1008.39
2018-03-26T08:01:25.239Z,1008.39
2018-03-26T08:02:25.227Z,1008.38
2018-03-26T08:03:25.966Z,1008.38
2018-03-26T08:04:25.214Z,1008.36
2018-03-26T08:05:25.211Z,1008.39
2018-03-26T08:06:25.212Z,1008.42
2018-03-26T08:07:25.192Z,1008.42
2018-03-26T08:08:25.185Z,1008.40
2018-03-26T08:09:25.179Z,1008.43
2018-03-26T08:10:25.172Z,1008.40
2018-03-26T08:11:25.179Z,1008.45
2018-03-26T08:12:25.159Z,1008.42
2018-03-26T08:13:25.150Z,1008.44
2018-03-26T08:14:25.139Z,1008.48
2018-03-26T08:15:25.131Z,1008.47
2018-03-26T08:16:25.128Z,1008.51
2018-03-26T08:17:25.125Z,1008.52
2018-03-26T08:18:25.113Z,1008.52
2018-03-26T08:19:25.103Z,1008.51
2018-03-26T08:20:25.100Z,1008.55
2018-03-26T08:21:25.087Z,1008.56
2018-03-26T08:22:25.078Z,1008.55
2018-03-26T08:23:25.080Z,1008.57
2018-03-26T08:24:25.071Z,1008.59
2018-03-26T08:25:25.063Z,1008.64
2018-03-26T08:26:25.060Z,1008.67
2018-03-26T08:27:25.044Z,1008.69
2018-03-26T08:28:25.039Z,1008.67
2018-03-26T08:29:25.035Z,1008.68
2018-03-26T08:30:25.028Z,1008.72
2018-03-26T08:31:25.023Z,1008.70
2018-03-26T08:32:25.015Z,1008.74
2018-03-26T08:33:25.007Z,1008.70
2018-03-26T08:34:25.018Z,1008.73
2018-03-26T08:35:25.004Z,1008.75
2018-03-26T08:36:25.015Z,1008.74
2018-03-26T08:37:24.984Z,1008.75
2018-03-26T08:38:24.981Z,1008.80
2018-03-26T08:39:24.977Z,1008.86
2018-03-26T08:40:24.970Z,1008.85
2018-03-26T08:41:24.958Z,1008.90
2018-03-26T08:42:25.029Z,1008.88
2018-03-26T08:43:24.951Z,1008.90
2018-03-26T08:44:24.951Z,1008.84
2018-03-26T08:45:24.948Z,1008.89
2018-03-26T08:46:24.944Z,1008.93
2018-03-26T08:47:24.938Z,1008.94
2018-03-26T08:48:24.934Z,1008.96
2018-03-26T08:49:24.962Z,1008.97
2018-03-26T08:50:24.962Z,1008.98
2018-03-26T08:51:24.933Z,1008.98
2018-03-26T08:52:24.926Z,1008.97
2018-03-26T08:53:24.922Z,1008.94
2018-03-26T08:54:24.920Z,1008.97
2018-03-26T08:55:24.922Z,1009.01
2018-03-26T08:56:24.919Z,1008.96
2018-03-26T08:57:24.920Z,1009.01
2018-03-26T08:58:24.915Z,1008.98
2018-03-26T08:59:24.920Z,1008.96
2018-03-26T09:00:24.920Z,1008.98
2018-03-26T09:01:24.915Z,1009.01
2018-03-26T09:02:24.917Z,1009.00
2018-03-26T09:03:24.917Z,1008.95
2018-03-26T09:04:24.920Z,1008.96
2018-03-26T09:05:24.918Z,1008.96
2018-03-26T09:06:24.920Z,1008.99
2018-03-26T09:07:24.931Z,1008.99
2018-03-26T09:08:24.925Z,1008.99
2018-03-26T09:09:24.928Z,1008.99
2018-03-26T09:10:24.927Z,1008.97
2018-03-26T09:11:24.928Z,1009.01
2018-03-26T09:12:24.937Z,1008.96
2018-03-26T09:13:24.932Z,1008.97
2018-03-26T09:14:24.932Z,1008.97
2018-03-26T09:15:24.935Z,1008.99
2018-03-26T09:16:24.947Z,1009.01
2018-03-26T09:17:24.946Z,1008.99
2018-03-26T09:18:24.947Z,1008.99
2018-03-26T09:19:24.952Z,1009.01
2018-03-26T09:20:24.952Z,1009.03
2018-03-26T09:21:24.950Z,1009.04
2018-03-26T09:22:24.961Z,1009.07
2018-03-26T09:23:24.959Z,1009.10
2018-03-26T09:24:24.965Z,1009.13
2018-03-26T09:25:24.967Z,1009.14
2018-03-26T09:26:24.972Z,1009.09
2018-03-26T09:27:24.976Z,1009.12
2018-03-26T09:28:24.979Z,1009.10
2018-03-26T09:29:24.982Z,1009.12
2018-03-26T09:30:24.987Z,1009.11
2018-03-26T09:31:24.992Z,1009.18
2018-03-26T09:32:25.030Z,1009.14
2018-03-26T09:33:25.001Z,1009.14
2018-03-26T09:34:25.003Z,1009.12
2018-03-26T09:35:25.042Z,1009.14
2018-03-26T09:36:25.012Z,1009.17
2018-03-26T09:37:25.017Z,1009.16
2018-03-26T09:38:25.023Z,1009.16
2018-03-26T09:39:25.673Z,1009.14
2018-03-26T09:40:25.038Z,1009.19
2018-03-26T09:41:25.041Z,1009.17
2018-03-26T09:42:25.042Z,1009.15
2018-03-26T09:43:25.051Z,1009.15
2018-03-26T09:44:25.059Z,1009.20
2018-03-26T09:45:25.063Z,1009.16
2018-03-26T09:46:25.069Z,1009.20
2018-03-26T09:47:25.074Z,1009.15
2018-03-26T09:48:25.078Z,1009.16
2018-03-26T09:49:25.109Z,1009.16
2018-03-26T09:50:25.090Z,1009.12
2018-03-26T09:51:25.097Z,1009.15
2018-03-26T09:52:25.107Z,1009.13
2018-03-26T09:53:25.148Z,1009.14
2018-03-26T09:54:25.114Z,1009.14
2018-03-26T09:55:25.118Z,1009.12
2018-03-26T09:56:25.162Z,1009.11
2018-03-26T09:57:25.138Z,1009.14
2018-03-26T09:58:25.142Z,1009.11
2018-03-26T09:59:25.152Z,1009.14
2018-03-26T10:00:25.152Z,1009.11
2018-03-26T10:01:25.156Z,1009.09
2018-03-26T10:02:25.165Z,1009.09
2018-03-26T10:03:25.403Z,1009.11
2018-03-26T10:04:25.180Z,1009.08
2018-03-26T10:05:25.184Z,1009.12
2018-03-26T10:06:25.196Z,1009.11
2018-03-26T10:07:25.197Z,1009.14
2018-03-26T10:08:25.752Z,1009.15
2018-03-26T10:09:25.235Z,1009.11
2018-03-26T10:10:25.218Z,1009.19
2018-03-26T10:11:25.225Z,1009.19
2018-03-26T10:12:25.232Z,1009.20
2018-03-26T10:13:25.236Z,1009.19
2018-03-26T10:14:25.243Z,1009.17
2018-03-26T10:15:25.250Z,1009.17
2018-03-26T10:16:25.259Z,1009.21
2018-03-26T10:17:25.264Z,1009.22
2018-03-26T10:18:25.275Z,1009.17
2018-03-26T10:19:25.285Z,1009.15
2018-03-26T10:20:25.283Z,1009.14
2018-03-26T10:21:25.288Z,1009.17
2018-03-26T10:22:25.302Z,1009.15
2018-03-26T10:23:25.308Z,1009.16
2018-03-26T10:24:25.314Z,1009.18
2018-03-26T10:25:25.321Z,1009.15
2018-03-26T10:26:25.327Z,1009.18
2018-03-26T10:27:25.337Z,1009.22
2018-03-26T10:28:25.350Z,1009.20
2018-03-26T10:29:25.347Z,1009.24
2018-03-26T10:30:25.357Z,1009.23
2018-03-26T10:31:25.367Z,1009.26
2018-03-26T10:32:25.371Z,1009.25
2018-03-26T10:33:25.380Z,1009.28
2018-03-26T10:34:25.383Z,1009.25
2018-03-26T10:35:25.395Z,1009.26
2018-03-26T10:36:25.406Z,1009.27
2018-03-26T10:37:25.409Z,1009.30
2018-03-26T10:38:25.415Z,1009.28
2018-03-26T10:39:25.428Z,1009.28
2018-03-26T10:40:25.431Z,1009.32
2018-03-26T10:41:25.439Z,1009.31
2018-03-26T10:42:25.444Z,1009.32
2018-03-26T10:43:25.452Z,1009.30
2018-03-26T10:44:25.457Z,1009.30
2018-03-26T10:45:25.464Z,1009.31
2018-03-26T10:46:25.473Z,1009.26
2018-03-26T10:47:25.479Z,1009.34
2018-03-26T10:48:25.485Z,1009.34
2018-03-26T10:49:25.498Z,1009.38
2018-03-26T10:50:25.499Z,1009.37
2018-03-26T10:51:25.509Z,1009.35
2018-03-26T10:52:25.513Z,1009.37
2018-03-26T10:53:25.523Z,1009.37
2018-03-26T10:54:25.526Z,1009.40
2018-03-26T10:55:25.533Z,1009.36
2018-03-26T10:56:25.544Z,1009.42
2018-03-26T10:57:25.546Z,1009.37
2018-03-26T10:58:25.554Z,1009.39
2018-03-26T10:59:25.560Z,1009.37
2018-03-26T11:00:25.613Z,1009.33
2018-03-26T11:01:25.574Z,1009.32
2018-03-26T11:02:25.583Z,1009.35
2018-03-26T11:03:25.592Z,1009.36
2018-03-26T11:04:25.609Z,1009.34
2018-03-26T11:05:25.598Z,1009.36
2018-03-26T11:06:25.605Z,1009.39
2018-03-26T11:07:25.620Z,1009.39
2018-03-26T11:08:25.623Z,1009.39
2018-03-26T11:09:25.648Z,1009.40
2018-03-26T11:10:25.631Z,1009.39
2018-03-26T11:11:25.638Z,1009.48
2018-03-26T11:12:25.645Z,1009.42
2018-03-26T11:13:25.652Z,1009.45
2018-03-26T11:14:25.658Z,1009.42
2018-03-26T11:15:25.662Z,1009.44
2018-03-26T11:16:25.669Z,1009.43
2018-03-26T11:17:25.675Z,1009.41
2018-03-26T11:18:25.681Z,1009.40
2018-03-26T11:19:25.718Z,1009.43
2018-03-26T11:20:25.695Z,1009.38
2018-03-26T11:21:25.703Z,1009.32
2018-03-26T11:22:25.708Z,1009.38
2018-03-26T11:23:25.714Z,1009.37
2018-03-26T11:24:25.720Z,1009.34
2018-03-26T11:25:25.725Z,1009.34
2018-03-26T11:26:25.736Z,1009.34
2018-03-26T11:27:25.865Z,1009.30
2018-03-26T11:28:25.746Z,1009.32
2018-03-26T11:29:25.786Z,1009.36
2018-03-26T11:30:25.761Z,1009.40
2018-03-26T11:31:25.764Z,1009.38
2018-03-26T11:32:25.768Z,1009.36
2018-03-26T11:33:25.774Z,1009.34
2018-03-26T11:34:25.781Z,1009.38
2018-03-26T11:35:25.789Z,1009.36
2018-03-26T11:36:25.865Z,1009.38
2018-03-26T11:37:25.802Z,1009.38
2018-03-26T11:38:25.805Z,1009.37
2018-03-26T11:39:25.813Z,1009.34
2018-03-26T11:40:25.820Z,1009.36
2018-03-26T11:41:25.831Z,1009.39
2018-03-26T11:42:25.837Z,1009.40
2018-03-26T11:43:25.838Z,1009.41
2018-03-26T11:44:25.841Z,1009.41
2018-03-26T11:45:25.854Z,1009.42
2018-03-26T11:46:25.852Z,1009.39
2018-03-26T11:47:25.874Z,1009.39
2018-03-26T11:48:25.869Z,1009.40
2018-03-26T11:49:25.872Z,1009.43
2018-03-26T11:50:25.884Z,1009.40
2018-03-26T11:51:25.882Z,1009.38
2018-03-26T11:52:25.887Z,1009.36
2018-03-26T11:53:25.893Z,1009.38
2018-03-26T11:54:25.904Z,1009.41
2018-03-26T11:55:25.904Z,1009.39
2018-03-26T11:56:25.910Z,1009.41
2018-03-26T11:57:25.918Z,1009.38
2018-03-26T11:58:25.918Z,1009.40
2018-03-26T11:59:25.923Z,1009.38
2018-03-26T12:00:25.929Z,1009.40
2018-03-26T12:01:25.939Z,1009.43
2018-03-26T12:02:25.960Z,1009.41
2018-03-26T12:03:25.943Z,1009.40
2018-03-26T12:04:25.949Z,1009.38
2018-03-26T12:05:25.954Z,1009.36